createdAt,value
2023-03-28T00:01:48.174Z,8.80
2023-03-28T00:04:23.542Z,8.80
2023-03-28T00:06:53.955Z,8.80
2023-03-28T00:09:24.180Z,8.90
2023-03-28T00:11:53.993Z,8.60
2023-03-28T00:16:54.236Z,8.60
2023-03-28T00:19:25.971Z,8.70
2023-03-28T00:21:58.142Z,8.30
2023-03-28T00:24:28.475Z,8.60
2023-03-28T00:27:01.159Z,8.60
2023-03-28T00:29:31.687Z,8.50
2023-03-28T00:32:02.040Z,8.70
2023-03-28T00:34:33.648Z,8.70
2023-03-28T00:37:04.187Z,9.00
2023-03-28T00:39:35.009Z,8.80
2023-03-28T00:42:05.168Z,8.40
2023-03-28T00:44:51.325Z,8.20
2023-03-28T00:47:40.023Z,7.90
2023-03-28T00:50:17.087Z,8.00
2023-03-28T00:52:52.631Z,7.80
2023-03-28T00:55:27.246Z,7.90
2023-03-28T00:57:57.877Z,7.80
2023-03-28T01:00:29.636Z,7.60
2023-03-28T01:03:03.555Z,8.00
2023-03-28T01:05:37.138Z,7.80
2023-03-28T01:08:12.986Z,7.60
2023-03-28T01:10:44.354Z,7.50
2023-03-28T01:13:16.500Z,7.30
2023-03-28T01:15:48.064Z,7.40
2023-03-28T01:18:19.090Z,7.30
2023-03-28T01:21:17.167Z,7.30
2023-03-28T01:24:23.746Z,7.20
2023-03-28T01:26:56.008Z,7.60
2023-03-28T01:30:04.644Z,7.50
2023-03-28T01:33:19.200Z,7.50
2023-03-28T01:36:34.172Z,7.30
2023-03-28T01:39:13.594Z,7.00
2023-03-28T01:41:50.688Z,7.20
2023-03-28T01:44:31.770Z,7.50
2023-03-28T01:47:07.396Z,7.40
2023-03-28T01:49:46.640Z,7.50
2023-03-28T01:52:22.181Z,7.60
2023-03-28T01:54:58.957Z,7.40
2023-03-28T01:57:34.877Z,7.50
2023-03-28T02:00:14.258Z,7.30
2023-03-28T02:03:13.124Z,7.00
2023-03-28T02:05:58.243Z,7.00
2023-03-28T02:08:31.546Z,6.80
2023-03-28T02:11:35.934Z,7.10
2023-03-28T02:36:48.295Z,6.80
2023-03-28T02:39:40.119Z,6.50
2023-03-28T02:42:30.556Z,6.70
2023-03-28T02:45:20.394Z,6.00
2023-03-28T03:00:54.500Z,5.80
2023-03-28T03:03:26.198Z,6.70
2023-03-28T03:05:58.650Z,6.90
2023-03-28T04:36:22.972Z,6.30
2023-03-28T04:39:03.225Z,6.20
2023-03-28T04:44:54.872Z,6.20
2023-03-28T04:47:25.868Z,6.30
2023-03-28T04:49:57.450Z,6.50
2023-03-28T04:52:29.219Z,6.50
2023-03-28T04:54:59.961Z,6.50
2023-03-28T05:10:58.728Z,6.60
2023-03-28T05:13:29.971Z,7.40
2023-03-28T05:16:11.597Z,7.50
2023-03-28T05:19:16.709Z,7.80
2023-03-28T05:22:17.237Z,7.60
2023-03-28T05:24:48.777Z,6.90
2023-03-28T05:27:20.642Z,6.50
2023-03-28T05:29:53.219Z,6.10
2023-03-28T05:32:23.972Z,5.80
2023-03-28T05:34:54.892Z,6.00
2023-03-28T05:37:29.096Z,6.00
2023-03-28T05:39:58.916Z,6.20
2023-03-28T05:42:28.924Z,6.30
2023-03-28T05:45:00.001Z,6.80
2023-03-28T05:47:35.968Z,7.10
2023-03-28T05:50:07.280Z,7.00
2023-03-28T05:52:39.753Z,7.00
2023-03-28T05:55:11.053Z,7.00
2023-03-28T05:57:43.056Z,7.00
2023-03-28T06:00:17.089Z,7.00
2023-03-28T06:02:56.426Z,7.60
2023-03-28T06:05:35.019Z,7.80
2023-03-28T06:08:10.964Z,8.30
2023-03-28T06:10:41.398Z,8.50
2023-03-28T06:13:32.934Z,8.50
2023-03-28T06:16:03.136Z,8.40
2023-03-28T06:18:35.969Z,8.60
2023-03-28T06:21:07.166Z,8.70
2023-03-28T06:23:39.139Z,8.70
2023-03-28T06:26:12.624Z,8.90
2023-03-28T06:28:44.888Z,9.20
2023-03-28T06:31:23.744Z,9.30
2023-03-28T06:33:54.250Z,9.50
2023-03-28T06:36:25.388Z,9.50
2023-03-28T06:38:58.901Z,9.60
2023-03-28T06:41:31.177Z,9.80
2023-03-28T06:44:01.275Z,9.80
2023-03-28T06:47:04.676Z,9.90
2023-03-28T06:49:35.317Z,10.00
2023-03-28T06:52:37.379Z,10.00
2023-03-28T06:55:12.313Z,10.20
2023-03-28T06:57:42.399Z,10.20
2023-03-28T07:00:24.529Z,10.30
2023-03-28T07:03:32.736Z,10.10
2023-03-28T07:06:07.682Z,10.20
2023-03-28T07:08:40.730Z,10.40
2023-03-28T07:11:13.044Z,10.30
2023-03-28T07:13:47.448Z,10.50
2023-03-28T07:16:18.883Z,10.50
2023-03-28T07:18:52.094Z,10.40
2023-03-28T07:21:27.647Z,10.40
2023-03-28T07:24:01.877Z,10.60
2023-03-28T07:26:43.347Z,10.60
2023-03-28T07:29:13.774Z,10.60
2023-03-28T07:31:44.044Z,10.70
2023-03-28T07:34:13.984Z,10.90
2023-03-28T07:36:48.544Z,10.90
2023-03-28T07:39:28.993Z,10.90
2023-03-28T07:42:04.323Z,11.00
2023-03-28T07:44:34.243Z,11.10
2023-03-28T07:47:04.884Z,11.20
2023-03-28T07:49:35.516Z,11.10
2023-03-28T07:52:08.560Z,11.20
2023-03-28T07:54:39.252Z,11.20
2023-03-28T07:57:12.339Z,11.30
2023-03-28T08:00:00.352Z,11.40
2023-03-28T08:02:31.056Z,11.40
2023-03-28T08:05:01.236Z,11.60
2023-03-28T08:07:34.601Z,11.50
2023-03-28T08:10:04.735Z,11.70
2023-03-28T08:12:37.428Z,11.80
2023-03-28T08:15:09.245Z,11.80
2023-03-28T08:17:39.327Z,11.80
2023-03-28T08:20:12.362Z,11.90
2023-03-28T08:22:42.484Z,12.30
2023-03-28T08:25:32.375Z,12.10
2023-03-28T08:28:07.082Z,12.00
2023-03-28T08:30:37.715Z,12.20
2023-03-28T08:33:07.967Z,12.40
2023-03-28T08:35:38.403Z,12.50
2023-03-28T08:38:19.894Z,12.80
2023-03-28T08:41:00.770Z,12.90
2023-03-28T08:44:02.997Z,13.00
2023-03-28T08:46:34.260Z,12.70
2023-03-28T08:49:08.553Z,12.60
2023-03-28T08:51:41.145Z,12.60
2023-03-28T08:54:18.330Z,12.40
2023-03-28T08:56:56.113Z,12.80
2023-03-28T08:59:37.202Z,12.80
2023-03-28T09:02:17.962Z,12.90
2023-03-28T09:04:51.478Z,12.60
2023-03-28T09:07:35.903Z,12.70
2023-03-28T09:10:19.514Z,12.80
2023-03-28T09:13:24.792Z,12.90
2023-03-28T09:16:10.996Z,13.00
2023-03-28T09:19:03.534Z,12.90
2023-03-28T09:21:49.024Z,13.10
2023-03-28T09:24:48.582Z,13.20
2023-03-28T09:27:26.124Z,13.10
2023-03-28T09:30:02.389Z,13.30
2023-03-28T09:32:38.510Z,13.10
2023-03-28T09:35:18.305Z,13.20
2023-03-28T09:37:53.229Z,13.40
2023-03-28T09:40:27.662Z,13.40
2023-03-28T09:43:33.393Z,13.30
2023-03-28T09:46:32.554Z,13.80
2023-03-28T09:49:19.422Z,13.90
2023-03-28T09:51:57.721Z,13.50
2023-03-28T09:54:32.446Z,13.20
2023-03-28T09:57:06.604Z,13.40
2023-03-28T09:59:51.735Z,13.30
2023-03-28T10:02:30.681Z,13.70
2023-03-28T10:05:07.055Z,14.00
2023-03-28T10:07:46.180Z,14.00
2023-03-28T10:10:32.551Z,13.80
2023-03-28T10:13:13.517Z,14.00
2023-03-28T10:15:50.708Z,14.20
2023-03-28T10:18:27.683Z,14.60
2023-03-28T10:21:19.922Z,14.90
2023-03-28T10:24:05.007Z,14.50
2023-03-28T10:26:35.830Z,14.70
2023-03-28T10:29:09.741Z,14.90
2023-03-28T10:31:42.553Z,14.90
2023-03-28T10:34:45.415Z,15.80
2023-03-28T10:37:39.811Z,15.50
2023-03-28T10:40:30.539Z,14.50
2023-03-28T10:43:41.373Z,14.30
2023-03-28T10:46:22.470Z,14.60
2023-03-28T10:49:18.172Z,14.40
2023-03-28T10:51:58.226Z,14.60
2023-03-28T10:54:44.822Z,14.80
2023-03-28T10:57:31.942Z,14.80
2023-03-28T11:00:10.260Z,14.80
2023-03-28T11:03:17.446Z,15.50
2023-03-28T11:06:05.798Z,15.70
2023-03-28T11:08:54.633Z,15.50
2023-03-28T11:11:51.689Z,15.10
2023-03-28T11:17:05.240Z,15.10
2023-03-28T11:20:19.196Z,15.00
2023-03-28T11:26:01.828Z,15.50
2023-03-28T11:29:14.594Z,15.50
2023-03-28T11:31:55.227Z,15.60
2023-03-28T11:34:28.688Z,15.70
2023-03-28T11:37:07.955Z,15.80
2023-03-28T11:39:46.153Z,16.00
2023-03-28T11:42:30.464Z,15.60
2023-03-28T11:45:07.481Z,15.60
2023-03-28T11:47:42.254Z,16.40
2023-03-28T11:50:20.929Z,16.00
2023-03-28T11:53:20.019Z,16.20
2023-03-28T11:56:07.354Z,15.80
2023-03-28T11:59:05.327Z,16.00
2023-03-28T12:01:42.268Z,16.10
2023-03-28T12:07:02.461Z,16.20
2023-03-28T12:09:52.085Z,16.40
2023-03-28T12:12:27.210Z,16.40
2023-03-28T12:15:02.444Z,16.90
2023-03-28T12:17:49.942Z,16.70
2023-03-28T12:20:34.439Z,17.20
2023-03-28T12:26:24.847Z,16.60
2023-03-28T12:28:59.066Z,16.90
2023-03-28T12:31:38.613Z,16.70
2023-03-28T12:37:25.546Z,16.40
2023-03-28T12:40:13.416Z,16.50
2023-03-28T12:45:22.711Z,17.50
2023-03-28T12:47:56.550Z,16.60
2023-03-28T12:50:32.078Z,16.60
2023-03-28T12:53:04.358Z,17.80
2023-03-28T12:55:48.599Z,18.80
2023-03-28T12:58:31.642Z,18.10
2023-03-28T13:04:32.122Z,17.10
2023-03-28T13:12:31.406Z,17.70
2023-03-28T13:15:03.674Z,17.40
2023-03-28T13:17:38.203Z,17.70
2023-03-28T13:20:23.268Z,17.90
2023-03-28T13:22:58.820Z,17.60
2023-03-28T13:53:46.931Z,17.80
2023-03-28T13:56:26.989Z,18.40
2023-03-28T13:58:59.362Z,18.70
2023-03-28T14:01:36.455Z,18.50
2023-03-28T14:04:17.921Z,18.60
2023-03-28T14:06:49.225Z,18.70
2023-03-28T14:09:24.802Z,18.80
2023-03-28T14:11:56.170Z,19.50
2023-03-28T14:14:31.517Z,19.50
2023-03-28T14:17:05.520Z,19.20
2023-03-28T14:19:39.395Z,19.30
2023-03-28T14:22:10.475Z,19.40
2023-03-28T14:24:42.431Z,18.80
2023-03-28T14:27:16.543Z,18.50
2023-03-28T14:29:57.831Z,18.90
2023-03-28T14:32:32.518Z,19.00
2023-03-28T14:35:21.727Z,19.20
2023-03-28T14:37:53.165Z,19.20
2023-03-28T14:40:33.279Z,19.80
2023-03-28T14:43:06.710Z,18.80
2023-03-28T14:45:41.896Z,18.90
2023-03-28T14:48:19.096Z,18.90
2023-03-28T14:50:52.194Z,18.60
2023-03-28T14:53:26.127Z,19.30
2023-03-28T14:56:02.196Z,18.90
2023-03-28T14:58:33.744Z,19.10
2023-03-28T15:01:05.245Z,18.30
2023-03-28T15:03:39.306Z,18.60
2023-03-28T15:06:13.542Z,18.40
2023-03-28T15:08:46.199Z,18.10
2023-03-28T15:11:22.775Z,18.60
2023-03-28T15:14:05.495Z,18.30
2023-03-28T15:16:41.259Z,18.90
2023-03-28T15:19:19.754Z,18.70
2023-03-28T15:21:57.028Z,18.40
2023-03-28T15:24:28.481Z,19.00
2023-03-28T15:27:02.515Z,18.50
2023-03-28T15:29:37.448Z,19.00
2023-03-28T15:32:09.909Z,18.90
2023-03-28T15:34:48.236Z,18.70
2023-03-28T15:39:54.105Z,18.80
2023-03-28T15:42:37.019Z,18.60
2023-03-28T15:45:27.612Z,18.40
2023-03-28T15:47:58.248Z,18.70
2023-03-28T15:50:33.581Z,18.70
2023-03-28T15:53:08.598Z,18.00
2023-03-28T15:55:39.040Z,17.90
2023-03-28T15:58:16.522Z,17.70
2023-03-28T16:00:49.816Z,17.60
2023-03-28T16:03:35.014Z,18.40
2023-03-28T16:06:26.605Z,18.70
2023-03-28T16:09:16.186Z,18.40
2023-03-28T16:11:46.627Z,18.30
2023-03-28T16:14:53.339Z,18.30
2023-03-28T16:17:43.249Z,18.50
2023-03-28T16:20:36.545Z,18.20
2023-03-28T16:23:08.612Z,18.00
2023-03-28T16:25:39.443Z,18.30
2023-03-28T16:28:09.757Z,18.20
2023-03-28T16:30:42.741Z,18.00
2023-03-28T16:33:12.376Z,19.00
2023-03-28T16:35:42.109Z,18.70
2023-03-28T16:38:13.417Z,18.10
2023-03-28T16:40:43.332Z,18.40
2023-03-28T16:43:15.811Z,18.20
2023-03-28T16:45:50.557Z,18.30
2023-03-28T16:48:22.270Z,18.00
2023-03-28T16:50:56.210Z,18.40
2023-03-28T16:53:26.824Z,18.40
2023-03-28T16:55:56.735Z,17.30
2023-03-28T16:58:28.412Z,17.90
2023-03-28T17:01:06.827Z,17.60
2023-03-28T17:03:37.310Z,17.30
2023-03-28T17:06:10.114Z,16.90
2023-03-28T17:08:40.485Z,17.10
2023-03-28T17:11:12.316Z,16.60
2023-03-28T17:13:43.853Z,16.30
2023-03-28T17:16:15.775Z,16.10
2023-03-28T17:18:46.760Z,15.80
2023-03-28T17:21:18.324Z,15.70
2023-03-28T17:23:51.256Z,15.60
2023-03-28T17:26:22.650Z,15.30
2023-03-28T17:28:52.662Z,15.20
2023-03-28T17:31:26.370Z,15.10
2023-03-28T17:33:57.209Z,14.90
2023-03-28T17:36:29.270Z,15.00
2023-03-28T17:39:00.731Z,14.80
2023-03-28T17:41:31.763Z,14.70
2023-03-28T17:44:02.701Z,14.80
2023-03-28T17:46:34.858Z,14.70
2023-03-28T17:49:08.577Z,14.60
2023-03-28T17:52:03.633Z,14.80
2023-03-28T17:54:33.789Z,15.10
2023-03-28T17:57:10.527Z,14.80
2023-03-28T17:59:40.886Z,14.70
2023-03-28T18:02:13.313Z,14.80
2023-03-28T18:04:43.780Z,14.70
2023-03-28T18:07:19.736Z,14.70
2023-03-28T18:09:50.256Z,14.60
2023-03-28T18:12:20.904Z,14.50
2023-03-28T18:14:51.337Z,14.40
2023-03-28T18:17:23.521Z,14.50
2023-03-28T18:19:53.646Z,14.30
2023-03-28T18:22:24.668Z,14.40
2023-03-28T18:24:57.024Z,14.20
2023-03-28T18:27:28.576Z,14.10
2023-03-28T18:29:59.930Z,14.00
2023-03-28T18:32:31.692Z,14.00
2023-03-28T18:35:03.143Z,14.10
2023-03-28T18:37:33.464Z,14.00
2023-03-28T18:40:07.768Z,13.80
2023-03-28T18:51:11.438Z,13.40
2023-03-28T18:53:48.099Z,13.40
2023-03-28T18:56:24.993Z,13.40
2023-03-28T18:59:00.900Z,12.80
2023-03-28T19:01:37.647Z,12.50
2023-03-28T19:04:14.302Z,12.10
2023-03-28T19:06:51.177Z,12.20
2023-03-28T19:09:28.242Z,11.90
2023-03-28T19:12:04.993Z,12.10
2023-03-28T19:14:42.934Z,12.00
2023-03-28T19:17:20.102Z,12.00
2023-03-28T19:19:57.311Z,12.10
2023-03-28T19:22:37.258Z,12.40
2023-03-28T19:25:31.931Z,12.50
2023-03-28T19:28:10.517Z,12.30
2023-03-28T19:30:51.502Z,12.30
2023-03-28T19:33:29.229Z,12.10
2023-03-28T19:36:07.473Z,12.10
2023-03-28T19:38:48.208Z,12.00
2023-03-28T19:41:26.720Z,12.00
2023-03-28T19:44:02.470Z,11.90
2023-03-28T19:46:38.642Z,11.90
2023-03-28T19:49:13.359Z,11.90
2023-03-28T19:51:51.457Z,11.80
2023-03-28T19:54:28.042Z,11.70
2023-03-28T19:57:03.635Z,11.80
2023-03-28T19:59:38.845Z,11.50
2023-03-28T20:02:15.692Z,11.50
2023-03-28T20:04:49.325Z,11.70
2023-03-28T20:07:25.765Z,11.40
2023-03-28T20:09:59.256Z,11.50
2023-03-28T20:12:29.797Z,11.70
2023-03-28T20:14:59.913Z,11.60
2023-03-28T20:17:34.596Z,11.60
2023-03-28T20:20:07.620Z,11.20
2023-03-28T20:22:38.344Z,11.40
2023-03-28T20:25:11.239Z,11.40
2023-03-28T20:27:41.149Z,11.20
2023-03-28T20:30:12.299Z,11.40
2023-03-28T20:32:42.265Z,11.40
2023-03-28T20:35:12.742Z,11.20
2023-03-28T20:37:42.769Z,11.30
2023-03-28T20:40:15.534Z,11.50
2023-03-28T20:42:46.680Z,11.50
2023-03-28T20:45:22.678Z,11.40
2023-03-28T20:47:58.966Z,11.40
2023-03-28T20:50:34.338Z,11.40
2023-03-28T20:53:04.269Z,11.40
2023-03-28T20:55:36.733Z,11.30
2023-03-28T20:58:09.205Z,11.30
2023-03-28T21:00:40.668Z,11.10
2023-03-28T21:03:12.683Z,11.10
2023-03-28T21:05:46.531Z,11.30
2023-03-28T21:08:19.918Z,11.30
2023-03-28T21:10:55.779Z,11.10
2023-03-28T21:13:32.040Z,10.90
2023-03-28T21:16:02.999Z,11.00
2023-03-28T21:18:34.942Z,11.00
2023-03-28T21:21:06.680Z,10.90
2023-03-28T21:23:39.381Z,10.90
2023-03-28T21:26:13.488Z,11.30
2023-03-28T21:28:49.015Z,11.00
2023-03-28T21:31:22.286Z,10.90
2023-03-28T21:33:52.561Z,10.70
2023-03-28T21:36:25.751Z,10.90
2023-03-28T21:38:55.889Z,10.80
2023-03-28T21:41:28.740Z,10.70
2023-03-28T21:44:09.307Z,10.60
2023-03-28T21:46:39.631Z,10.50
2023-03-28T21:49:11.907Z,10.40
2023-03-28T21:51:42.327Z,10.70
2023-03-28T21:54:12.440Z,10.40
2023-03-28T21:56:44.129Z,10.80
2023-03-28T21:59:13.895Z,10.70
2023-03-28T22:01:43.616Z,10.60
2023-03-28T22:04:13.427Z,10.60
2023-03-28T22:06:43.552Z,10.60
2023-03-28T22:09:13.469Z,10.60
2023-03-28T22:11:47.178Z,10.60
2023-03-28T22:14:17.932Z,10.50
2023-03-28T22:16:48.123Z,10.50
2023-03-28T22:19:19.064Z,10.40
2023-03-28T22:21:49.904Z,10.50
2023-03-28T22:24:19.621Z,10.50
2023-03-28T22:26:51.264Z,10.30
2023-03-28T22:29:20.879Z,10.30
2023-03-28T22:31:51.038Z,10.30
2023-03-28T22:34:22.036Z,10.40
2023-03-28T22:36:52.143Z,10.30
2023-03-28T22:39:23.006Z,10.40
2023-03-28T22:41:54.539Z,10.20
2023-03-28T22:44:27.129Z,9.90
2023-03-28T22:47:02.976Z,10.00
2023-03-28T22:49:34.522Z,10.00
2023-03-28T22:52:05.558Z,10.20
2023-03-28T22:54:36.904Z,9.90
2023-03-28T22:57:08.965Z,9.80
2023-03-28T22:59:38.894Z,10.00
2023-03-28T23:02:09.140Z,10.00
2023-03-28T23:04:39.028Z,10.10
2023-03-28T23:07:09.663Z,10.20
2023-03-28T23:09:39.575Z,10.20
2023-03-28T23:12:11.328Z,10.20
2023-03-28T23:14:41.839Z,10.10
2023-03-28T23:17:11.880Z,9.90
2023-03-28T23:19:42.802Z,10.00
2023-03-28T23:22:13.017Z,10.10
2023-03-28T23:24:43.249Z,10.00
2023-03-28T23:27:14.902Z,9.90
2023-03-28T23:29:45.124Z,10.00
2023-03-28T23:32:15.043Z,9.90
2023-03-28T23:34:45.045Z,9.90
2023-03-28T23:37:15.174Z,9.90
2023-03-28T23:39:45.405Z,9.90
2023-03-28T23:42:16.859Z,9.90
2023-03-28T23:44:47.069Z,9.90
2023-03-28T23:47:17.378Z,9.90
2023-03-28T23:49:47.498Z,10.00
2023-03-28T23:52:17.939Z,9.80
2023-03-28T23:54:48.157Z,9.30
2023-03-28T23:57:19.731Z,9.40
2023-03-28T23:59:49.619Z,9.40
